createdAt,value
2023-02-26T00:00:52.103Z,0.00
2023-02-26T00:01:52.098Z,0.00
2023-02-26T00:02:52.054Z,0.00
2023-02-26T00:03:51.957Z,0.00
2023-02-26T00:04:51.910Z,0.00
2023-02-26T00:05:51.867Z,0.00
2023-02-26T00:06:51.818Z,0.00
2023-02-26T00:07:51.782Z,0.00
2023-02-26T00:08:51.717Z,0.00
2023-02-26T00:09:51.669Z,0.00
2023-02-26T00:10:51.635Z,0.00
2023-02-26T00:11:51.577Z,0.00
2023-02-26T00:12:51.529Z,0.00
2023-02-26T00:13:51.493Z,0.00
2023-02-26T00:14:51.435Z,0.00
2023-02-26T00:15:51.405Z,0.00
2023-02-26T00:16:51.391Z,0.00
2023-02-26T00:17:51.299Z,0.00
2023-02-26T00:18:51.266Z,0.00
2023-02-26T00:19:51.192Z,0.00
2023-02-26T00:20:51.143Z,0.00
2023-02-26T00:21:51.102Z,0.00
2023-02-26T00:22:51.063Z,0.00
2023-02-26T00:23:51.000Z,0.00
2023-02-26T00:24:50.984Z,0.00
2023-02-26T00:25:50.913Z,0.00
2023-02-26T00:26:50.864Z,0.00
2023-02-26T00:27:50.813Z,0.00
2023-02-26T00:28:50.764Z,0.00
2023-02-26T00:29:50.723Z,0.00
2023-02-26T00:30:50.722Z,0.00
2023-02-26T00:31:50.670Z,0.00
2023-02-26T00:32:50.574Z,0.00
2023-02-26T00:33:50.525Z,0.00
2023-02-26T00:34:50.476Z,0.00
2023-02-26T00:35:50.459Z,0.00
2023-02-26T00:36:50.384Z,0.00
2023-02-26T00:37:50.330Z,0.00
2023-02-26T00:38:50.288Z,0.00
2023-02-26T00:39:50.236Z,0.00
2023-02-26T00:40:50.190Z,0.00
2023-02-26T00:41:50.147Z,0.00
2023-02-26T00:42:50.152Z,0.00
2023-02-26T00:43:50.043Z,0.00
2023-02-26T00:44:50.012Z,0.00
2023-02-26T00:45:50.004Z,0.00
2023-02-26T00:46:49.905Z,0.00
2023-02-26T00:47:49.999Z,0.00
2023-02-26T00:48:49.809Z,0.00
2023-02-26T00:49:49.760Z,0.00
2023-02-26T00:50:49.711Z,0.00
2023-02-26T00:51:49.661Z,0.00
2023-02-26T00:52:49.621Z,0.00
2023-02-26T00:53:49.742Z,0.00
2023-02-26T00:54:49.520Z,0.00
2023-02-26T00:55:49.476Z,0.00
2023-02-26T00:56:49.431Z,0.00
2023-02-26T00:57:49.374Z,0.00
2023-02-26T00:58:49.331Z,0.00
2023-02-26T00:59:49.301Z,0.00
2023-02-26T01:00:49.234Z,0.00
2023-02-26T01:01:49.232Z,0.00
2023-02-26T01:02:49.136Z,0.00
2023-02-26T01:03:49.130Z,0.00
2023-02-26T01:04:49.052Z,0.00
2023-02-26T01:05:49.170Z,0.00
2023-02-26T01:06:48.953Z,0.00
2023-02-26T01:07:48.895Z,0.00
2023-02-26T01:08:48.849Z,0.00
2023-02-26T01:09:48.796Z,0.00
2023-02-26T01:10:48.751Z,0.00
2023-02-26T01:11:48.714Z,0.00
2023-02-26T01:12:48.661Z,0.00
2023-02-26T01:13:48.606Z,0.00
2023-02-26T01:14:48.569Z,0.00
2023-02-26T01:15:48.533Z,0.00
2023-02-26T01:16:48.467Z,0.00
2023-02-26T01:17:48.437Z,0.00
2023-02-26T01:18:48.372Z,0.00
2023-02-26T01:19:48.318Z,0.00
2023-02-26T01:20:48.282Z,0.00
2023-02-26T01:21:48.223Z,0.00
2023-02-26T01:22:48.185Z,0.00
2023-02-26T01:23:48.138Z,0.00
2023-02-26T01:24:48.087Z,0.00
2023-02-26T01:25:48.062Z,0.00
2023-02-26T01:26:47.988Z,0.00
2023-02-26T01:27:47.946Z,0.00
2023-02-26T01:28:47.887Z,0.00
2023-02-26T01:29:47.844Z,0.00
2023-02-26T01:30:47.871Z,0.00
2023-02-26T01:31:47.901Z,0.00
2023-02-26T01:32:47.750Z,0.00
2023-02-26T01:33:47.660Z,0.00
2023-02-26T01:34:47.608Z,0.00
2023-02-26T01:35:47.555Z,0.00
2023-02-26T01:36:47.503Z,0.00
2023-02-26T01:37:47.458Z,0.00
2023-02-26T01:38:47.409Z,0.00
2023-02-26T01:39:47.380Z,0.00
2023-02-26T01:40:47.316Z,0.00
2023-02-26T01:41:47.274Z,0.00
2023-02-26T01:42:47.226Z,0.00
2023-02-26T01:43:47.169Z,0.00
2023-02-26T01:44:47.125Z,0.00
2023-02-26T01:45:47.088Z,0.00
2023-02-26T01:46:47.041Z,0.00
2023-02-26T01:47:46.979Z,0.00
2023-02-26T01:48:46.935Z,0.00
2023-02-26T01:49:46.909Z,0.00
2023-02-26T01:50:46.839Z,0.00
2023-02-26T01:51:46.809Z,0.00
2023-02-26T01:52:46.744Z,0.00
2023-02-26T01:53:46.695Z,0.00
2023-02-26T01:54:46.654Z,0.00
2023-02-26T01:55:46.623Z,0.00
2023-02-26T01:56:46.546Z,0.00
2023-02-26T01:57:46.500Z,0.00
2023-02-26T01:58:46.453Z,0.00
2023-02-26T01:59:46.400Z,0.00
2023-02-26T02:00:46.359Z,0.00
2023-02-26T02:01:46.324Z,0.00
2023-02-26T02:02:46.318Z,0.00
2023-02-26T02:03:46.260Z,0.00
2023-02-26T02:04:46.159Z,0.00
2023-02-26T02:05:46.116Z,0.00
2023-02-26T02:06:46.096Z,0.00
2023-02-26T02:07:46.038Z,0.00
2023-02-26T02:08:45.975Z,0.00
2023-02-26T02:09:45.919Z,0.00
2023-02-26T02:10:45.879Z,0.00
2023-02-26T02:11:45.818Z,0.00
2023-02-26T02:12:45.776Z,0.00
2023-02-26T02:13:45.738Z,0.00
2023-02-26T02:14:45.674Z,0.00
2023-02-26T02:15:45.624Z,0.00
2023-02-26T02:16:45.605Z,0.00
2023-02-26T02:17:45.552Z,0.00
2023-02-26T02:18:45.477Z,0.00
2023-02-26T02:19:45.425Z,0.00
2023-02-26T02:20:45.381Z,0.00
2023-02-26T02:21:45.329Z,0.00
2023-02-26T02:22:45.275Z,0.00
2023-02-26T02:23:45.252Z,0.00
2023-02-26T02:24:45.190Z,0.00
2023-02-26T02:25:45.140Z,0.00
2023-02-26T02:26:45.098Z,0.00
2023-02-26T02:27:45.030Z,0.00
2023-02-26T02:28:44.987Z,0.00
2023-02-26T02:29:44.956Z,0.00
2023-02-26T02:30:44.907Z,0.00
2023-02-26T02:31:44.964Z,0.00
2023-02-26T02:32:44.788Z,0.00
2023-02-26T02:33:44.750Z,0.00
2023-02-26T02:34:44.692Z,0.00
2023-02-26T02:35:44.672Z,0.00
2023-02-26T02:36:44.594Z,0.00
2023-02-26T02:37:44.543Z,0.00
2023-02-26T02:38:44.492Z,0.00
2023-02-26T02:39:44.454Z,0.00
2023-02-26T02:40:44.394Z,0.00
2023-02-26T02:41:44.371Z,0.00
2023-02-26T02:42:44.296Z,0.00
2023-02-26T02:43:44.249Z,0.00
2023-02-26T02:44:44.207Z,0.00
2023-02-26T02:45:44.231Z,0.00
2023-02-26T02:46:44.143Z,0.00
2023-02-26T02:47:44.068Z,0.00
2023-02-26T02:48:44.006Z,0.00
2023-02-26T02:49:43.966Z,0.00
2023-02-26T02:50:43.919Z,0.00
2023-02-26T02:51:43.859Z,0.00
2023-02-26T02:52:43.810Z,0.00
2023-02-26T02:53:43.921Z,0.00
2023-02-26T02:54:43.714Z,0.00
2023-02-26T02:55:43.662Z,0.00
2023-02-26T02:56:43.614Z,0.00
2023-02-26T02:57:43.565Z,0.00
2023-02-26T02:58:43.515Z,0.00
2023-02-26T02:59:43.512Z,0.00
2023-02-26T03:00:43.484Z,0.00
2023-02-26T03:01:43.369Z,0.00
2023-02-26T03:02:43.361Z,0.00
2023-02-26T03:03:43.270Z,0.00
2023-02-26T03:04:43.222Z,0.00
2023-02-26T03:05:43.185Z,0.00
2023-02-26T03:06:43.120Z,0.00
2023-02-26T03:07:43.073Z,0.00
2023-02-26T03:08:43.028Z,0.00
2023-02-26T03:09:43.019Z,0.00
2023-02-26T03:10:42.932Z,0.00
2023-02-26T03:11:42.881Z,0.00
2023-02-26T03:12:42.832Z,0.00
2023-02-26T03:13:42.779Z,0.00
2023-02-26T03:14:42.756Z,0.00
2023-02-26T03:15:42.680Z,0.00
2023-02-26T03:16:42.690Z,0.00
2023-02-26T03:17:42.627Z,0.00
2023-02-26T03:18:42.571Z,0.00
2023-02-26T03:19:42.484Z,0.00
2023-02-26T03:20:42.437Z,0.00
2023-02-26T03:21:42.408Z,0.00
2023-02-26T03:22:42.336Z,0.00
2023-02-26T03:23:42.284Z,0.00
2023-02-26T03:24:42.237Z,0.00
2023-02-26T03:25:42.196Z,0.00
2023-02-26T03:26:42.141Z,0.00
2023-02-26T03:27:42.117Z,0.00
2023-02-26T03:28:42.053Z,0.00
2023-02-26T03:29:41.998Z,0.00
2023-02-26T03:30:41.945Z,0.00
2023-02-26T03:31:41.969Z,0.00
2023-02-26T03:32:41.893Z,0.00
2023-02-26T03:33:41.823Z,0.00
2023-02-26T03:34:41.780Z,0.00
2023-02-26T03:35:41.699Z,0.00
2023-02-26T03:36:41.650Z,0.00
2023-02-26T03:37:41.601Z,0.00
2023-02-26T03:38:41.556Z,0.00
2023-02-26T03:39:41.832Z,0.00
2023-02-26T03:40:41.454Z,0.00
2023-02-26T03:41:41.412Z,0.00
2023-02-26T03:42:41.354Z,0.00
2023-02-26T03:43:41.303Z,0.00
2023-02-26T03:44:41.257Z,0.00
2023-02-26T03:45:41.327Z,0.00
2023-02-26T03:46:41.159Z,0.00
2023-02-26T03:47:41.108Z,0.00
2023-02-26T03:48:41.117Z,0.00
2023-02-26T03:49:41.014Z,0.00
2023-02-26T03:50:40.966Z,0.00
2023-02-26T03:51:40.945Z,0.00
2023-02-26T03:52:40.871Z,0.00
2023-02-26T03:53:40.835Z,0.00
2023-02-26T03:54:40.769Z,0.00
2023-02-26T03:55:40.719Z,0.00
2023-02-26T03:56:40.671Z,0.00
2023-02-26T03:57:40.616Z,0.00
2023-02-26T03:58:40.587Z,0.00
2023-02-26T03:59:40.517Z,0.00
2023-02-26T04:00:42.802Z,0.00
2023-02-26T04:01:40.421Z,0.00
2023-02-26T04:02:40.401Z,0.00
2023-02-26T04:03:40.339Z,0.00
2023-02-26T04:04:40.338Z,0.00
2023-02-26T04:05:40.225Z,0.00
2023-02-26T04:06:40.173Z,0.00
2023-02-26T04:07:40.129Z,0.00
2023-02-26T04:08:40.101Z,0.00
2023-02-26T04:09:40.033Z,0.00
2023-02-26T04:10:39.983Z,0.00
2023-02-26T04:11:39.930Z,0.00
2023-02-26T04:12:39.882Z,0.00
2023-02-26T04:13:39.836Z,0.00
2023-02-26T04:14:39.794Z,0.00
2023-02-26T04:15:39.752Z,0.00
2023-02-26T04:16:39.706Z,0.00
2023-02-26T04:17:39.640Z,0.00
2023-02-26T04:18:39.585Z,0.00
2023-02-26T04:19:39.535Z,0.00
2023-02-26T04:20:39.500Z,0.00
2023-02-26T04:21:39.444Z,0.00
2023-02-26T04:22:39.393Z,0.00
2023-02-26T04:23:39.343Z,0.00
2023-02-26T04:24:39.297Z,0.00
2023-02-26T04:25:39.248Z,0.00
2023-02-26T04:26:39.210Z,0.00
2023-02-26T04:27:39.142Z,0.00
2023-02-26T04:28:39.098Z,0.00
2023-02-26T04:29:39.057Z,0.00
2023-02-26T04:30:39.065Z,0.00
2023-02-26T04:31:38.990Z,0.00
2023-02-26T04:32:39.006Z,0.00
2023-02-26T04:33:38.850Z,0.00
2023-02-26T04:34:38.804Z,0.00
2023-02-26T04:35:38.748Z,0.00
2023-02-26T04:36:38.722Z,0.00
2023-02-26T04:37:38.652Z,0.00
2023-02-26T04:38:38.600Z,0.00
2023-02-26T04:39:38.561Z,0.00
2023-02-26T04:40:38.500Z,0.00
2023-02-26T04:41:38.507Z,0.00
2023-02-26T04:42:38.403Z,0.00
2023-02-26T04:43:38.362Z,0.00
2023-02-26T04:44:38.307Z,0.00
2023-02-26T04:45:38.262Z,0.00
2023-02-26T04:46:38.230Z,0.00
2023-02-26T04:47:38.264Z,0.00
2023-02-26T04:48:38.112Z,0.00
2023-02-26T04:49:38.058Z,0.00
2023-02-26T04:50:38.009Z,0.00
2023-02-26T04:51:37.964Z,0.00
2023-02-26T04:52:37.909Z,0.00
2023-02-26T04:53:37.892Z,0.00
2023-02-26T04:54:37.813Z,0.00
2023-02-26T04:55:37.763Z,0.00
2023-02-26T04:56:37.715Z,0.00
2023-02-26T04:57:37.666Z,0.00
2023-02-26T04:58:37.613Z,0.00
2023-02-26T04:59:37.737Z,0.00
2023-02-26T05:00:37.513Z,0.00
2023-02-26T05:01:37.526Z,0.00
2023-02-26T05:02:37.423Z,0.00
2023-02-26T05:03:37.372Z,0.00
2023-02-26T05:04:37.381Z,0.00
2023-02-26T05:05:37.431Z,0.00
2023-02-26T05:06:37.244Z,0.00
2023-02-26T05:07:37.185Z,0.00
2023-02-26T05:08:37.124Z,0.00
2023-02-26T05:09:37.076Z,0.00
2023-02-26T05:10:37.038Z,0.00
2023-02-26T05:11:37.007Z,0.00
2023-02-26T05:12:36.932Z,0.00
2023-02-26T05:13:36.878Z,0.00
2023-02-26T05:14:36.857Z,0.00
2023-02-26T05:15:36.782Z,0.00
2023-02-26T05:16:36.752Z,0.00
2023-02-26T05:17:36.684Z,0.00
2023-02-26T05:18:36.666Z,0.00
2023-02-26T05:19:36.586Z,0.00
2023-02-26T05:20:36.539Z,0.00
2023-02-26T05:21:36.509Z,0.00
2023-02-26T05:22:36.433Z,0.00
2023-02-26T05:23:36.395Z,0.00
2023-02-26T05:24:36.336Z,0.00
2023-02-26T05:25:36.292Z,0.00
2023-02-26T05:26:36.236Z,0.00
2023-02-26T05:27:36.208Z,0.00
2023-02-26T05:28:36.138Z,0.00
2023-02-26T05:29:36.090Z,0.00
2023-02-26T05:30:36.068Z,0.00
2023-02-26T05:31:36.022Z,0.00
2023-02-26T05:32:35.951Z,0.00
2023-02-26T05:33:35.905Z,0.00
2023-02-26T05:34:35.849Z,0.00
2023-02-26T05:35:35.791Z,0.00
2023-02-26T05:36:35.750Z,0.00
2023-02-26T05:37:35.696Z,0.00
2023-02-26T05:38:35.657Z,0.00
2023-02-26T05:39:35.637Z,0.00
2023-02-26T05:40:35.546Z,0.00
2023-02-26T05:41:35.496Z,0.00
2023-02-26T05:42:35.447Z,0.00
2023-02-26T05:43:35.401Z,0.00
2023-02-26T05:44:35.346Z,0.00
2023-02-26T05:45:35.402Z,4.00
2023-02-26T05:46:35.283Z,4.00
2023-02-26T05:47:35.195Z,4.00
2023-02-26T05:48:35.151Z,4.00
2023-02-26T05:49:35.104Z,4.00
2023-02-26T05:50:35.051Z,4.00
2023-02-26T05:51:35.018Z,8.00
2023-02-26T05:52:34.957Z,8.00
2023-02-26T05:53:34.904Z,12.00
2023-02-26T05:54:34.853Z,16.00
2023-02-26T05:55:34.808Z,16.00
2023-02-26T05:56:34.757Z,20.00
2023-02-26T05:57:34.722Z,24.00
2023-02-26T05:58:34.706Z,32.00
2023-02-26T05:59:34.611Z,36.00
2023-02-26T06:03:48.931Z,76.00
2023-02-26T06:04:48.858Z,92.00
2023-02-26T06:05:48.799Z,104.00
2023-02-26T06:06:48.751Z,124.00
2023-02-26T06:07:48.700Z,144.00
2023-02-26T06:08:48.646Z,168.00
2023-02-26T06:09:48.610Z,192.00
2023-02-26T06:10:48.551Z,212.00
2023-02-26T06:11:48.498Z,240.00
2023-02-26T06:12:48.444Z,268.00
2023-02-26T06:13:48.395Z,304.00
2023-02-26T06:14:48.346Z,336.00
2023-02-26T06:15:48.315Z,368.00
2023-02-26T06:16:48.270Z,400.00
2023-02-26T06:17:48.188Z,436.00
2023-02-26T06:18:48.159Z,476.00
2023-02-26T06:19:48.089Z,520.00
2023-02-26T06:20:48.069Z,560.00
2023-02-26T06:21:47.995Z,600.00
2023-02-26T06:22:47.945Z,648.00
2023-02-26T06:23:47.906Z,716.00
2023-02-26T06:24:47.841Z,788.00
2023-02-26T06:25:47.797Z,868.00
2023-02-26T06:26:47.795Z,936.00
2023-02-26T06:27:47.695Z,1004.00
2023-02-26T06:28:47.650Z,1060.00
2023-02-26T06:29:47.608Z,1124.00
2023-02-26T06:30:47.629Z,1180.00
2023-02-26T06:31:47.639Z,1240.00
2023-02-26T06:32:47.561Z,1308.00
2023-02-26T06:33:47.409Z,1364.00
2023-02-26T06:34:47.357Z,1396.00
2023-02-26T06:35:47.303Z,1424.00
2023-02-26T06:36:47.265Z,1440.00
2023-02-26T06:37:47.205Z,1476.00
2023-02-26T06:38:47.184Z,1528.00
2023-02-26T06:39:47.106Z,1576.00
2023-02-26T06:40:47.058Z,1608.00
2023-02-26T06:41:47.019Z,1652.00
2023-02-26T06:42:46.963Z,1696.00
2023-02-26T06:43:46.913Z,1748.00
2023-02-26T06:44:46.886Z,1792.00
2023-02-26T06:45:46.834Z,1840.00
2023-02-26T06:46:46.767Z,1896.00
2023-02-26T06:47:46.754Z,1932.00
2023-02-26T06:48:46.664Z,1976.00
2023-02-26T06:49:46.623Z,2028.00
2023-02-26T06:50:46.593Z,2088.00
2023-02-26T06:51:46.518Z,2152.00
2023-02-26T06:52:46.467Z,2204.00
2023-02-26T06:53:46.419Z,2248.00
2023-02-26T06:54:46.367Z,2288.00
2023-02-26T06:55:46.318Z,2332.00
2023-02-26T06:56:46.283Z,2384.00
2023-02-26T06:57:46.227Z,2448.00
2023-02-26T06:58:46.196Z,2504.00
2023-02-26T06:59:46.144Z,2572.00
2023-02-26T07:00:46.128Z,2640.00
2023-02-26T07:01:46.021Z,2712.00
2023-02-26T07:02:45.979Z,2784.00
2023-02-26T07:03:45.925Z,2884.00
2023-02-26T07:04:45.886Z,2988.00
2023-02-26T07:05:45.825Z,3016.00
2023-02-26T07:06:45.800Z,3068.00
2023-02-26T07:07:45.721Z,3156.00
2023-02-26T07:08:45.694Z,3224.00
2023-02-26T07:09:46.147Z,3292.00
2023-02-26T07:10:45.590Z,3392.00
2023-02-26T07:11:45.526Z,3436.00
2023-02-26T07:12:45.481Z,3432.00
2023-02-26T07:13:45.432Z,3472.00
2023-02-26T07:14:45.414Z,3692.00
2023-02-26T07:15:46.339Z,3712.00
2023-02-26T07:16:45.381Z,3748.00
2023-02-26T07:17:45.232Z,3848.00
2023-02-26T07:18:45.210Z,4116.00
2023-02-26T07:19:45.132Z,4108.00
2023-02-26T07:20:45.108Z,4484.00
2023-02-26T07:21:45.065Z,4208.00
2023-02-26T07:22:44.986Z,3996.00
2023-02-26T07:23:44.936Z,3888.00
2023-02-26T07:24:44.884Z,3872.00
2023-02-26T07:25:44.833Z,4264.00
2023-02-26T07:26:44.784Z,4576.00
2023-02-26T07:27:44.926Z,4476.00
2023-02-26T07:28:44.700Z,4552.00
2023-02-26T07:29:44.642Z,4416.00
2023-02-26T07:30:44.644Z,4424.00
2023-02-26T07:31:44.644Z,4276.00
2023-02-26T07:32:44.495Z,4756.00
2023-02-26T07:33:44.474Z,4864.00
2023-02-26T07:34:44.394Z,4628.00
2023-02-26T07:35:44.350Z,4460.00
2023-02-26T07:36:44.297Z,4488.00
2023-02-26T07:37:44.241Z,4504.00
2023-02-26T07:38:44.195Z,4532.00
2023-02-26T07:39:44.152Z,4624.00
2023-02-26T07:40:44.100Z,4620.00
2023-02-26T07:41:44.055Z,4688.00
2023-02-26T07:42:43.990Z,4760.00
2023-02-26T07:43:43.948Z,4728.00
2023-02-26T07:44:43.898Z,4740.00
2023-02-26T07:45:43.868Z,4884.00
2023-02-26T07:46:43.797Z,4848.00
2023-02-26T07:47:43.750Z,5424.00
2023-02-26T07:48:43.707Z,6556.00
2023-02-26T07:49:43.651Z,6016.00
2023-02-26T07:50:43.598Z,5664.00
2023-02-26T07:51:43.595Z,5920.00
2023-02-26T07:52:43.499Z,5672.00
2023-02-26T07:53:43.449Z,5588.00
2023-02-26T07:54:43.400Z,6704.00
2023-02-26T07:55:43.345Z,7004.00
2023-02-26T07:56:43.296Z,7480.00
2023-02-26T07:57:43.305Z,7288.00
2023-02-26T07:58:43.205Z,6932.00
2023-02-26T07:59:43.152Z,7232.00
2023-02-26T08:00:43.111Z,7300.00
2023-02-26T08:01:43.098Z,6504.00
2023-02-26T08:02:43.006Z,5984.00
2023-02-26T08:03:42.976Z,6188.00
2023-02-26T08:04:42.900Z,6680.00
2023-02-26T08:05:42.856Z,7140.00
2023-02-26T08:06:42.805Z,6120.00
2023-02-26T08:07:42.751Z,5892.00
2023-02-26T08:08:42.708Z,5924.00
2023-02-26T08:09:42.681Z,5812.00
2023-02-26T08:10:42.604Z,5752.00
2023-02-26T08:11:42.565Z,5812.00
2023-02-26T08:12:42.509Z,5736.00
2023-02-26T08:13:42.457Z,5684.00
2023-02-26T08:14:42.411Z,5728.00
2023-02-26T08:15:42.432Z,5852.00
2023-02-26T08:16:42.310Z,5980.00
2023-02-26T08:17:42.287Z,6016.00
2023-02-26T08:18:42.214Z,5936.00
2023-02-26T08:19:42.192Z,5920.00
2023-02-26T08:20:42.114Z,5908.00
2023-02-26T08:21:42.064Z,5788.00
2023-02-26T08:22:42.039Z,5808.00
2023-02-26T08:23:41.963Z,5772.00
2023-02-26T08:24:41.915Z,5752.00
2023-02-26T08:25:41.892Z,5668.00
2023-02-26T08:26:41.818Z,5916.00
2023-02-26T08:27:41.778Z,5892.00
2023-02-26T08:28:41.729Z,5868.00
2023-02-26T08:29:41.685Z,5892.00
2023-02-26T08:30:41.691Z,5884.00
2023-02-26T08:31:41.736Z,5868.00
2023-02-26T08:32:41.574Z,5940.00
2023-02-26T08:33:41.470Z,6256.00
2023-02-26T08:34:41.424Z,6548.00
2023-02-26T08:35:41.389Z,6720.00
2023-02-26T08:36:41.324Z,7852.00
2023-02-26T08:37:41.276Z,7568.00
2023-02-26T08:38:41.229Z,7084.00
2023-02-26T08:39:41.175Z,6860.00
2023-02-26T08:40:41.125Z,6576.00
2023-02-26T08:41:41.090Z,6684.00
2023-02-26T08:42:41.022Z,6548.00
2023-02-26T08:43:40.974Z,7368.00
2023-02-26T08:44:40.925Z,8796.00
2023-02-26T08:45:40.880Z,10764.00
2023-02-26T08:46:40.889Z,11508.00
2023-02-26T08:47:53.817Z,12924.00
2023-02-26T08:48:40.723Z,13712.00
2023-02-26T08:49:40.682Z,14552.00
2023-02-26T08:50:40.660Z,15584.00
2023-02-26T08:51:40.580Z,17536.00
2023-02-26T08:52:40.527Z,17504.00
2023-02-26T08:53:40.481Z,16676.00
2023-02-26T08:54:40.436Z,16180.00
2023-02-26T08:55:40.386Z,14196.00
2023-02-26T08:56:40.360Z,13552.00
2023-02-26T08:57:40.284Z,14216.00
2023-02-26T08:58:40.238Z,13804.00
2023-02-26T08:59:40.186Z,13424.00
2023-02-26T09:00:40.143Z,13632.00
2023-02-26T09:01:40.133Z,14648.00
2023-02-26T09:02:40.132Z,14944.00
2023-02-26T09:03:40.006Z,13276.00
2023-02-26T09:04:40.000Z,12640.00
2023-02-26T09:05:39.909Z,13332.00
2023-02-26T09:06:39.902Z,13248.00
2023-02-26T09:07:39.801Z,13372.00
2023-02-26T09:08:39.762Z,12324.00
2023-02-26T09:09:39.700Z,11904.00
2023-02-26T09:10:41.052Z,12036.00
2023-02-26T09:11:39.619Z,11764.00
2023-02-26T09:12:39.564Z,10220.00
2023-02-26T09:13:39.504Z,9856.00
2023-02-26T09:14:39.483Z,9264.00
2023-02-26T09:15:39.438Z,9364.00
2023-02-26T09:16:39.400Z,10220.00
2023-02-26T09:17:39.335Z,12316.00
2023-02-26T09:18:39.265Z,14148.00
2023-02-26T09:19:39.239Z,11804.00
2023-02-26T09:20:39.179Z,9984.00
2023-02-26T09:21:39.121Z,9280.00
2023-02-26T09:22:39.076Z,9740.00
2023-02-26T09:23:39.027Z,11412.00
2023-02-26T09:24:39.041Z,8924.00
2023-02-26T09:25:38.970Z,11136.00
2023-02-26T09:26:38.880Z,9320.00
2023-02-26T09:27:38.833Z,10212.00
2023-02-26T09:28:38.825Z,12120.00
2023-02-26T09:29:38.738Z,12476.00
2023-02-26T09:30:38.716Z,11632.00
2023-02-26T09:31:38.750Z,57376.00
2023-02-26T09:32:38.707Z,11568.00
2023-02-26T09:33:38.540Z,18336.00
2023-02-26T09:34:38.497Z,48320.00
2023-02-26T09:35:38.443Z,55488.00
2023-02-26T09:36:38.393Z,63456.00
2023-02-26T09:37:38.358Z,67936.00
2023-02-26T09:38:38.299Z,66272.00
2023-02-26T09:39:38.254Z,69280.00
2023-02-26T09:40:38.221Z,66752.00
2023-02-26T09:41:38.157Z,66336.00
2023-02-26T09:42:38.110Z,33056.00
2023-02-26T09:43:38.070Z,26048.00
2023-02-26T09:44:38.023Z,76672.00
2023-02-26T09:45:38.055Z,30624.00
2023-02-26T09:46:37.984Z,75680.00
2023-02-26T09:47:37.884Z,78528.00
2023-02-26T09:48:37.835Z,70496.00
2023-02-26T09:49:37.793Z,24384.00
2023-02-26T09:50:37.749Z,49568.00
2023-02-26T09:51:37.712Z,28576.00
2023-02-26T09:52:37.687Z,79264.00
2023-02-26T09:53:37.618Z,76032.00
2023-02-26T09:54:37.578Z,67744.00
2023-02-26T09:55:37.532Z,71040.00
2023-02-26T09:56:37.488Z,35104.00
2023-02-26T09:57:37.462Z,63520.00
2023-02-26T09:58:37.514Z,22368.00
2023-02-26T09:59:37.360Z,50432.00
2023-02-26T10:00:37.312Z,16356.00
2023-02-26T10:01:37.307Z,16132.00
2023-02-26T10:02:37.229Z,13488.00
2023-02-26T10:03:37.196Z,24544.00
2023-02-26T10:04:37.163Z,13944.00
2023-02-26T10:05:37.100Z,17368.00
2023-02-26T10:06:37.067Z,33312.00
2023-02-26T10:07:37.018Z,45344.00
2023-02-26T10:08:36.967Z,15732.00
2023-02-26T10:09:36.923Z,15064.00
2023-02-26T10:10:37.051Z,15576.00
2023-02-26T10:11:36.837Z,15976.00
2023-02-26T10:12:36.803Z,16656.00
2023-02-26T10:13:38.578Z,17352.00
2023-02-26T10:14:36.736Z,17760.00
2023-02-26T10:15:36.684Z,17504.00
2023-02-26T10:16:36.644Z,18048.00
2023-02-26T10:17:36.561Z,18656.00
2023-02-26T10:18:36.521Z,16652.00
2023-02-26T10:19:36.471Z,18272.00
2023-02-26T10:20:36.434Z,20448.00
2023-02-26T10:21:36.376Z,20896.00
2023-02-26T10:22:36.362Z,20992.00
2023-02-26T10:23:36.289Z,25760.00
2023-02-26T10:24:36.263Z,29216.00
2023-02-26T10:25:36.195Z,23392.00
2023-02-26T10:26:36.151Z,19872.00
2023-02-26T10:27:36.100Z,17504.00
2023-02-26T10:28:36.055Z,17472.00
2023-02-26T10:29:36.041Z,27584.00
2023-02-26T10:30:36.016Z,42464.00
2023-02-26T10:31:35.992Z,21888.00
2023-02-26T10:32:35.978Z,17120.00
2023-02-26T10:33:35.828Z,15600.00
2023-02-26T10:34:35.777Z,16184.00
2023-02-26T10:35:35.733Z,15796.00
2023-02-26T10:36:35.674Z,15152.00
2023-02-26T10:37:35.745Z,15796.00
2023-02-26T10:38:35.582Z,15876.00
2023-02-26T10:39:35.551Z,14928.00
2023-02-26T10:40:35.506Z,14060.00
2023-02-26T10:41:35.445Z,13704.00
2023-02-26T10:42:35.396Z,13464.00
2023-02-26T10:43:35.541Z,14052.00
2023-02-26T10:44:35.309Z,14628.00
2023-02-26T10:45:35.304Z,14180.00
2023-02-26T10:46:35.212Z,13856.00
2023-02-26T10:47:35.164Z,14820.00
2023-02-26T10:48:35.133Z,16388.00
2023-02-26T10:49:35.084Z,17664.00
2023-02-26T10:50:35.034Z,19392.00
2023-02-26T10:51:34.978Z,21408.00
2023-02-26T10:52:34.925Z,20864.00
2023-02-26T10:53:34.900Z,20096.00
2023-02-26T10:54:34.833Z,20416.00
2023-02-26T10:55:34.786Z,20992.00
2023-02-26T10:56:34.784Z,21888.00
2023-02-26T10:57:34.710Z,23424.00
2023-02-26T10:58:34.647Z,24352.00
2023-02-26T10:59:34.621Z,25152.00
2023-02-26T11:00:34.584Z,25856.00
2023-02-26T11:01:34.557Z,35328.00
2023-02-26T11:02:34.474Z,23424.00
2023-02-26T11:03:34.411Z,22080.00
2023-02-26T11:04:34.372Z,23744.00
2023-02-26T11:05:34.341Z,27584.00
2023-02-26T11:06:34.282Z,32096.00
2023-02-26T11:07:34.229Z,29280.00
2023-02-26T11:08:34.180Z,28320.00
2023-02-26T11:09:34.164Z,26176.00
2023-02-26T11:10:34.087Z,22944.00
2023-02-26T11:11:34.064Z,21440.00
2023-02-26T11:12:34.007Z,22816.00
2023-02-26T11:13:33.954Z,27328.00
2023-02-26T11:14:33.900Z,24288.00
2023-02-26T11:15:33.859Z,24992.00
2023-02-26T11:16:33.817Z,29312.00
2023-02-26T11:17:33.786Z,25312.00
2023-02-26T11:18:33.715Z,24000.00
2023-02-26T11:19:33.694Z,24672.00
2023-02-26T11:20:33.621Z,26592.00
2023-02-26T11:21:33.577Z,28160.00
2023-02-26T11:22:33.534Z,28768.00
2023-02-26T11:23:33.482Z,28864.00
2023-02-26T11:24:33.447Z,28096.00
2023-02-26T11:25:35.672Z,29024.00
2023-02-26T11:26:33.341Z,27968.00
2023-02-26T11:27:33.296Z,25920.00
2023-02-26T11:28:33.248Z,26848.00
2023-02-26T11:29:33.219Z,87104.00
2023-02-26T11:30:33.202Z,94816.00
2023-02-26T11:31:33.261Z,104128.00
2023-02-26T11:32:33.115Z,38592.00
2023-02-26T11:33:33.024Z,54688.00
2023-02-26T11:34:32.971Z,89600.00
2023-02-26T11:35:32.951Z,33856.00
2023-02-26T11:36:32.879Z,22688.00
2023-02-26T11:37:32.866Z,20288.00
2023-02-26T11:38:32.837Z,20128.00
2023-02-26T11:39:32.744Z,19136.00
2023-02-26T11:40:32.700Z,16100.00
2023-02-26T11:41:32.658Z,14968.00
2023-02-26T11:42:32.612Z,16888.00
2023-02-26T11:43:32.636Z,17084.00
2023-02-26T11:44:32.543Z,17388.00
2023-02-26T11:45:32.474Z,20832.00
2023-02-26T11:46:32.444Z,21024.00
2023-02-26T11:47:32.395Z,17680.00
2023-02-26T11:48:32.336Z,15272.00
2023-02-26T11:49:32.294Z,14908.00
2023-02-26T11:50:32.265Z,16844.00
2023-02-26T11:51:32.203Z,19968.00
2023-02-26T11:52:32.154Z,75488.00
2023-02-26T11:53:32.110Z,98720.00
2023-02-26T11:54:32.060Z,27232.00
2023-02-26T11:55:32.013Z,27744.00
2023-02-26T11:56:31.979Z,85952.00
2023-02-26T11:57:31.926Z,31712.00
2023-02-26T11:58:31.891Z,51200.00
2023-02-26T11:59:31.828Z,31616.00
2023-02-26T12:00:31.785Z,27552.00
2023-02-26T12:01:31.758Z,30240.00
2023-02-26T12:02:31.713Z,24928.00
2023-02-26T12:03:31.705Z,46112.00
2023-02-26T12:04:31.604Z,58208.00
2023-02-26T12:05:31.559Z,40672.00
2023-02-26T12:06:31.514Z,42784.00
2023-02-26T12:07:31.483Z,62048.00
2023-02-26T12:08:31.424Z,35456.00
2023-02-26T12:09:31.380Z,40544.00
2023-02-26T12:10:31.341Z,47520.00
2023-02-26T12:11:31.448Z,58464.00
2023-02-26T12:12:31.266Z,36608.00
2023-02-26T12:13:31.219Z,54496.00
2023-02-26T12:14:31.155Z,45568.00
2023-02-26T12:15:31.111Z,88160.00
2023-02-26T12:16:31.086Z,69952.00
2023-02-26T12:17:31.017Z,80064.00
2023-02-26T12:18:31.011Z,98112.00
2023-02-26T12:19:30.937Z,41344.00
2023-02-26T12:20:30.890Z,24352.00
2023-02-26T12:21:30.897Z,22112.00
2023-02-26T12:22:30.804Z,22784.00
2023-02-26T12:23:30.769Z,22464.00
2023-02-26T12:24:30.713Z,20608.00
2023-02-26T12:25:30.672Z,18304.00
2023-02-26T12:26:30.631Z,15704.00
2023-02-26T12:27:30.605Z,15840.00
2023-02-26T12:28:30.539Z,17024.00
2023-02-26T12:29:30.495Z,16188.00
2023-02-26T12:30:30.467Z,15948.00
2023-02-26T12:31:30.839Z,15620.00
2023-02-26T12:34:02.325Z,20928.00
2023-02-26T12:35:02.088Z,21440.00
2023-02-26T12:36:02.188Z,22240.00
2023-02-26T12:37:02.020Z,21888.00